Time;durP1;ratioP1;P1;durP2;ratioP2;P2;SDS_P1;SDS_P2;PMS_P1;PMS_P2;Temp;Humidity;BMP_temperature;BMP_pressure;BME280_temperature;BME280_humidity;BME280_pressure;Samples;Min_cycle;Max_cycle;Signal;HPM_P1;HPM_P2
2023/10/04 00:00:15;;;;;;;8.75;3.30;;;12.80;99.90;;;;;;4962232;28;20176;-91
2023/10/04 00:02:44;;;;;;;8.48;3.53;;;12.80;99.90;;;;;;4961740;28;20227;-86
2023/10/04 00:05:14;;;;;;;11.52;3.55;;;12.80;99.90;;;;;;4962165;28;20188;-85
2023/10/04 00:07:41;;;;;;;7.80;3.63;;;12.80;99.90;;;;;;4961650;28;20674;-86
2023/10/04 00:10:08;;;;;;;7.95;3.70;;;12.80;99.90;;;;;;4979023;28;20180;-85
2023/10/04 00:12:33;;;;;;;14.82;4.50;;;12.80;99.90;;;;;;4961456;28;20263;-86
2023/10/04 00:14:59;;;;;;;10.68;3.97;;;12.80;99.90;;;;;;4961530;28;20208;-92
2023/10/04 00:17:25;;;;;;;7.53;4.28;;;12.80;99.90;;;;;;4961516;28;20578;-85
2023/10/04 00:19:50;;;;;;;10.35;4.22;;;12.80;99.90;;;;;;4961185;28;20188;-86
2023/10/04 00:22:18;;;;;;;9.05;4.30;;;12.80;99.90;;;;;;4961510;28;20240;-85
2023/10/04 00:24:47;;;;;;;11.25;4.32;;;12.80;99.90;;;;;;4978633;28;20604;-92
2023/10/04 00:27:13;;;;;;;10.45;4.47;;;12.80;99.90;;;;;;4961413;28;20284;-86
2023/10/04 00:29:39;;;;;;;8.50;3.78;;;12.70;99.90;;;;;;4978662;28;20263;-90
2023/10/04 00:32:05;;;;;;;12.00;5.18;;;12.70;99.90;;;;;;4960899;28;20220;-86
2023/10/04 00:34:30;;;;;;;8.07;4.45;;;12.70;99.90;;;;;;4960957;28;20239;-85
2023/10/04 00:36:56;;;;;;;13.40;4.50;;;12.70;99.90;;;;;;4961162;28;20236;-86
2023/10/04 00:39:22;;;;;;;11.48;4.45;;;12.70;99.90;;;;;;4961274;28;20188;-85
2023/10/04 00:41:50;;;;;;;13.35;4.70;;;12.80;99.90;;;;;;4961220;28;20271;-84
2023/10/04 00:44:16;;;;;;;10.80;5.10;;;12.70;99.90;;;;;;4960891;28;20183;-83
2023/10/04 00:46:45;;;;;;;12.60;4.97;;;12.80;99.90;;;;;;4960783;28;20177;-84
2023/10/04 00:49:12;;;;;;;8.63;4.82;;;12.80;99.90;;;;;;4960926;28;20204;-89
2023/10/04 00:51:40;;;;;;;13.07;4.55;;;12.80;99.90;;;;;;4960893;28;20219;-87
2023/10/04 00:54:08;;;;;;;9.93;5.07;;;12.80;99.90;;;;;;4961014;28;20180;-86
2023/10/04 00:56:38;;;;;;;11.70;5.13;;;12.70;99.90;;;;;;4960647;28;20190;-84
2023/10/04 00:59:04;;;;;;;10.45;4.78;;;12.80;99.90;;;;;;4977964;28;20215;-89
2023/10/04 01:01:33;;;;;;;9.02;4.95;;;12.80;99.90;;;;;;4977519;28;20180;-87
2023/10/04 01:04:02;;;;;;;10.38;4.70;;;12.80;99.90;;;;;;4976731;28;20239;-88
2023/10/04 01:06:30;;;;;;;10.45;5.20;;;12.80;99.90;;;;;;4960658;28;20739;-83
2023/10/04 01:08:56;;;;;;;9.52;4.90;;;12.70;99.90;;;;;;4960659;28;20176;-85
2023/10/04 01:11:23;;;;;;;10.90;4.68;;;12.80;99.90;;;;;;4960362;28;20250;-86
2023/10/04 01:13:53;;;;;;;12.68;4.45;;;12.80;99.90;;;;;;4960548;28;20176;-86
2023/10/04 01:16:23;;;;;;;7.85;4.85;;;12.80;99.90;;;;;;4960710;28;20189;-87
2023/10/04 01:18:49;;;;;;;11.30;4.78;;;12.70;99.90;;;;;;4960221;28;20173;-93
2023/10/04 01:21:17;;;;;;;8.90;4.70;;;12.80;99.90;;;;;;4960347;28;20218;-86
2023/10/04 01:23:45;;;;;;;9.98;4.80;;;12.70;99.90;;;;;;4977663;28;20177;-84
2023/10/04 01:26:25;;;;;;;10.23;4.75;;;12.70;99.90;;;;;;4960398;28;20239;-86
2023/10/04 01:28:51;;;;;;;11.52;5.18;;;12.70;99.90;;;;;;4960027;28;20603;-87
2023/10/04 01:31:17;;;;;;;11.52;4.65;;;12.70;99.90;;;;;;4960262;28;20299;-84
2023/10/04 01:33:43;;;;;;;13.73;5.10;;;12.70;99.90;;;;;;4959858;28;20614;-85
2023/10/04 01:36:11;;;;;;;10.63;5.32;;;12.70;99.90;;;;;;4960216;28;20185;-90
2023/10/04 01:38:36;;;;;;;11.48;4.40;;;12.70;99.90;;;;;;4960064;28;20267;-85
2023/10/04 01:41:04;;;;;;;10.57;5.35;;;12.70;99.90;;;;;;4959895;28;20675;-91
2023/10/04 01:43:29;;;;;;;9.95;4.75;;;12.70;99.90;;;;;;4959735;28;20208;-86
2023/10/04 01:45:58;;;;;;;12.98;4.95;;;12.70;99.90;;;;;;4959834;28;20267;-87
2023/10/04 01:48:26;;;;;;;10.70;5.40;;;12.70;99.90;;;;;;4959584;28;20200;-88
2023/10/04 01:50:53;;;;;;;11.98;5.20;;;12.70;99.90;;;;;;4959741;28;20209;-90
2023/10/04 01:53:25;;;;;;;9.85;4.50;;;12.70;99.90;;;;;;4959710;28;20550;-86
2023/10/04 01:55:52;;;;;;;10.45;4.03;;;12.70;99.90;;;;;;4976899;28;20177;-85
2023/10/04 01:58:23;;;;;;;10.57;4.50;;;12.70;99.90;;;;;;4959671;28;20196;-90
2023/10/04 02:00:50;;;;;;;14.57;5.00;;;12.70;99.90;;;;;;4976960;28;20215;-86
2023/10/04 02:03:16;;;;;;;8.52;4.10;;;12.70;99.90;;;;;;4959020;28;20228;-86
2023/10/04 02:05:42;;;;;;;9.52;4.45;;;12.60;99.90;;;;;;4959551;28;20177;-84
2023/10/04 02:08:12;;;;;;;11.73;5.30;;;12.60;99.90;;;;;;4959346;28;20200;-87
2023/10/04 02:10:41;;;;;;;7.82;3.80;;;12.60;99.90;;;;;;4959229;28;20295;-88
2023/10/04 02:13:08;;;;;;;10.98;4.22;;;12.60;99.90;;;;;;4958744;28;20268;-87
2023/10/04 02:15:35;;;;;;;14.00;4.57;;;12.60;99.90;;;;;;4976565;28;20239;-85
2023/10/04 02:18:01;;;;;;;13.90;4.53;;;12.60;99.90;;;;;;4959822;28;20183;-92
2023/10/04 02:20:31;;;;;;;9.13;4.38;;;12.60;99.90;;;;;;4959684;28;20638;-89
2023/10/04 02:23:00;;;;;;;10.30;4.13;;;12.60;99.90;;;;;;4959808;28;20177;-92
2023/10/04 02:25:25;;;;;;;9.15;3.95;;;12.60;99.90;;;;;;4959635;28;20215;-94
2023/10/04 02:27:52;;;;;;;9.85;3.72;;;12.60;99.90;;;;;;4959777;28;20211;-90
2023/10/04 02:30:24;;;;;;;8.50;3.85;;;12.60;99.90;;;;;;4959640;28;20679;-90
2023/10/04 02:32:50;;;;;;;10.73;3.65;;;12.60;99.90;;;;;;4959477;28;20259;-91
2023/10/04 02:35:27;;;;;;;8.75;4.10;;;12.60;99.90;;;;;;4959071;28;20268;-94
2023/10/04 02:38:09;;;;;;;11.40;4.15;;;12.60;99.90;;;;;;4959565;28;20176;-93
2023/10/04 02:40:37;;;;;;;9.43;4.13;;;12.70;99.90;;;;;;4959400;28;20183;-94
2023/10/04 02:43:03;;;;;;;12.35;4.25;;;12.70;99.90;;;;;;4976473;28;20183;-91
2023/10/04 02:45:29;;;;;;;7.45;3.95;;;12.70;99.90;;;;;;4976339;28;20256;-90
2023/10/04 02:47:56;;;;;;;6.97;3.97;;;12.70;99.90;;;;;;4959399;28;20188;-93
2023/10/04 02:50:23;;;;;;;8.05;3.85;;;12.80;99.90;;;;;;4959040;28;20172;-96
2023/10/04 02:52:52;;;;;;;8.70;4.00;;;12.80;99.90;;;;;;4976354;28;20185;-95
2023/10/04 02:55:18;;;;;;;8.93;3.30;;;12.80;99.90;;;;;;4958731;28;20223;-92
2023/10/04 02:57:49;;;;;;;8.57;3.30;;;12.90;99.90;;;;;;4958949;28;20227;-95
2023/10/04 03:00:16;;;;;;;10.10;3.22;;;12.90;99.90;;;;;;4958917;28;20180;-90
2023/10/04 03:02:50;;;;;;;10.95;3.70;;;12.90;99.90;;;;;;4958611;28;20195;-89
2023/10/04 03:05:20;;;;;;;9.88;4.05;;;12.90;99.90;;;;;;4958901;28;20181;-93
2023/10/04 03:07:50;;;;;;;11.93;4.13;;;12.90;99.90;;;;;;4976667;28;20187;-88
2023/10/04 03:10:24;;;;;;;10.30;3.88;;;12.90;99.90;;;;;;4959137;28;20184;-91
2023/10/04 03:12:59;;;;;;;8.10;3.30;;;13.00;99.90;;;;;;4958999;28;20196;-88
2023/10/04 03:15:27;;;;;;;9.90;3.80;;;12.90;99.90;;;;;;4958906;28;20190;-88
2023/10/04 03:18:13;;;;;;;6.18;3.33;;;12.90;99.90;;;;;;4958872;28;20184;-88
2023/10/04 03:20:45;;;;;;;8.57;3.83;;;13.00;99.90;;;;;;4975890;28;20172;-86
2023/10/04 03:23:11;;;;;;;10.52;3.78;;;12.90;99.90;;;;;;4959008;28;20240;-92
2023/10/04 03:25:37;;;;;;;9.93;3.17;;;12.90;99.90;;;;;;4960078;28;20236;-93
2023/10/04 03:28:05;;;;;;;7.13;3.63;;;12.90;99.90;;;;;;4962873;28;20183;-91
2023/10/04 03:30:32;;;;;;;9.30;4.28;;;12.90;99.90;;;;;;4963150;28;20292;-90
2023/10/04 03:32:57;;;;;;;7.82;3.90;;;12.90;99.90;;;;;;4962752;28;20191;-91
2023/10/04 03:35:26;;;;;;;7.95;4.20;;;12.90;99.90;;;;;;4962583;28;20176;-91
2023/10/04 03:38:01;;;;;;;9.88;3.78;;;12.90;99.90;;;;;;4962705;28;20184;-89
2023/10/04 03:40:46;;;;;;;12.77;3.80;;;12.90;99.90;;;;;;4962946;28;20240;-91
2023/10/04 03:43:12;;;;;;;10.30;4.07;;;12.90;99.90;;;;;;4962741;28;20168;-91
2023/10/04 03:45:39;;;;;;;8.98;3.83;;;12.90;99.90;;;;;;4962799;28;20292;-93
2023/10/04 03:48:14;;;;;;;8.77;3.47;;;12.90;99.90;;;;;;4962441;28;20243;-90
2023/10/04 03:50:40;;;;;;;5.82;3.30;;;12.90;99.90;;;;;;4979447;28;20195;-90
2023/10/04 03:53:07;;;;;;;10.85;3.90;;;12.90;99.90;;;;;;4962526;28;20191;-91
2023/10/04 03:55:33;;;;;;;9.73;3.72;;;12.90;99.90;;;;;;4962613;28;20204;-93
2023/10/04 03:57:59;;;;;;;11.55;4.15;;;12.90;99.90;;;;;;4979529;28;20215;-91
2023/10/04 04:00:25;;;;;;;12.43;4.38;;;12.90;99.90;;;;;;4962438;28;20604;-90
2023/10/04 04:02:51;;;;;;;7.88;3.88;;;12.90;99.90;;;;;;4962178;28;20188;-89
2023/10/04 04:05:22;;;;;;;10.98;3.80;;;12.90;99.90;;;;;;4962282;28;20173;-92
2023/10/04 04:07:52;;;;;;;7.75;3.90;;;12.90;99.90;;;;;;4962520;28;20180;-90
2023/10/04 04:10:19;;;;;;;9.52;4.07;;;12.90;99.90;;;;;;4962114;28;20177;-95
2023/10/04 04:12:46;;;;;;;8.00;4.10;;;12.90;99.90;;;;;;4962417;28;20207;-94
2023/10/04 04:15:14;;;;;;;9.68;4.18;;;12.90;99.90;;;;;;4962658;28;20176;-93
2023/10/04 04:17:45;;;;;;;8.98;3.90;;;12.90;99.90;;;;;;4962500;28;20616;-94
2023/10/04 04:20:19;;;;;;;9.88;4.30;;;12.90;99.90;;;;;;4961924;28;20195;-95
2023/10/04 04:22:50;;;;;;;10.70;4.43;;;12.90;99.90;;;;;;4979208;28;20180;-95
2023/10/04 04:25:20;;;;;;;8.38;4.05;;;12.80;99.90;;;;;;4962145;28;20173;-90
2023/10/04 04:27:47;;;;;;;10.25;4.75;;;12.80;99.90;;;;;;4962082;28;20180;-92
2023/10/04 04:30:19;;;;;;;9.85;4.20;;;12.80;99.90;;;;;;4962072;28;20177;-90
2023/10/04 04:32:58;;;;;;;6.68;4.32;;;12.90;99.90;;;;;;4961633;28;20220;-94
2023/10/04 04:40:44;;;;;;;14.65;4.82;;;12.80;99.90;;;;;;4979443;28;20210;-91
2023/10/04 04:45:51;;;;;;;9.05;4.03;;;12.70;99.90;;;;;;4979268;28;20160;-94
2023/10/04 04:48:25;;;;;;;10.52;4.55;;;12.70;99.90;;;;;;4961643;28;20184;-94
2023/10/04 04:50:55;;;;;;;7.95;3.90;;;12.70;99.90;;;;;;4961706;28;20320;-93
2023/10/04 04:53:27;;;;;;;10.32;4.13;;;12.60;99.90;;;;;;4962055;28;20172;-93
2023/10/04 04:55:53;;;;;;;16.35;4.38;;;12.60;99.90;;;;;;4960947;28;20267;-93
2023/10/04 04:58:22;;;;;;;10.95;4.50;;;12.60;99.90;;;;;;4961596;28;20642;-94
2023/10/04 05:00:55;;;;;;;10.48;4.10;;;12.60;99.90;;;;;;4961520;28;20251;-94
2023/10/04 05:03:21;;;;;;;11.10;4.30;;;12.60;99.90;;;;;;4961237;28;20255;-89
2023/10/04 05:05:49;;;;;;;8.07;4.10;;;12.60;99.90;;;;;;4977635;28;20215;-90
2023/10/04 05:08:17;;;;;;;13.13;4.10;;;12.60;99.90;;;;;;4960638;28;20196;-90
2023/10/04 05:10:44;;;;;;;11.45;4.72;;;12.60;99.90;;;;;;4978112;28;20195;-94
2023/10/04 05:13:14;;;;;;;10.02;4.15;;;12.60;99.90;;;;;;4961198;28;20188;-92
2023/10/04 05:15:43;;;;;;;11.10;4.53;;;12.60;99.90;;;;;;4961188;28;20255;-88
2023/10/04 05:18:16;;;;;;;9.75;4.35;;;12.60;99.90;;;;;;4961078;28;20181;-90
2023/10/04 05:20:55;;;;;;;12.30;4.47;;;12.60;99.90;;;;;;4960904;28;20177;-91
2023/10/04 05:23:26;;;;;;;10.27;4.50;;;12.50;99.90;;;;;;4961097;28;20183;-91
2023/10/04 05:25:53;;;;;;;9.45;4.05;;;12.50;99.90;;;;;;4961225;28;20177;-92
2023/10/04 05:28:27;;;;;;;11.20;4.70;;;12.50;99.90;;;;;;4960906;28;20173;-91
2023/10/04 05:30:53;;;;;;;12.40;4.63;;;12.50;99.90;;;;;;4960724;28;20216;-92
2023/10/04 05:33:20;;;;;;;11.60;4.70;;;12.50;99.90;;;;;;4960816;28;20184;-94
2023/10/04 05:35:48;;;;;;;11.48;4.50;;;12.50;99.90;;;;;;4960525;28;20181;-92
2023/10/04 05:38:23;;;;;;;12.43;4.97;;;12.60;99.90;;;;;;4960573;28;20191;-93
2023/10/04 05:40:49;;;;;;;12.13;4.40;;;12.60;99.90;;;;;;4960648;28;20267;-90
2023/10/04 05:43:16;;;;;;;9.63;4.70;;;12.60;99.90;;;;;;4960619;28;20227;-92
2023/10/04 05:45:43;;;;;;;11.90;4.70;;;12.60;99.90;;;;;;4977944;28;20176;-92
2023/10/04 05:48:11;;;;;;;8.10;3.85;;;12.50;99.90;;;;;;4959783;28;20173;-92
2023/10/04 05:50:38;;;;;;;13.25;4.70;;;12.60;99.90;;;;;;4960144;28;20177;-93
2023/10/04 05:53:07;;;;;;;10.27;3.70;;;12.60;99.90;;;;;;4960600;28;20608;-92
2023/10/04 05:55:39;;;;;;;9.82;4.78;;;12.60;99.90;;;;;;4960366;28;20635;-94
2023/10/04 05:58:07;;;;;;;9.95;4.63;;;12.60;99.90;;;;;;4977564;28;20243;-91
2023/10/04 06:00:34;;;;;;;8.00;3.75;;;12.60;99.90;;;;;;4960482;28;20526;-95
2023/10/04 06:03:06;;;;;;;9.10;4.13;;;12.60;99.90;;;;;;4956884;28;20268;-88
2023/10/04 06:05:34;;;;;;;10.45;3.97;;;12.60;99.90;;;;;;4940915;29;20204;-94
2023/10/04 06:08:27;;;;;;;11.02;4.47;;;12.60;99.90;;;;;;4941080;29;20268;-93
2023/10/04 06:10:55;;;;;;;14.63;4.78;;;12.60;99.90;;;;;;4957211;29;20332;-95
2023/10/04 06:13:25;;;;;;;15.18;4.60;;;12.60;99.90;;;;;;4940832;29;20185;-90
2023/10/04 06:15:59;;;;;;;11.52;4.38;;;12.60;99.90;;;;;;4940711;29;20200;-87
2023/10/04 06:18:29;;;;;;;12.75;4.55;;;12.70;99.90;;;;;;4940531;29;20643;-86
2023/10/04 06:20:55;;;;;;;13.75;4.72;;;12.70;99.90;;;;;;4940563;29;20613;-89
2023/10/04 06:23:22;;;;;;;9.82;4.95;;;12.70;99.90;;;;;;4940054;29;20605;-86
2023/10/04 06:25:52;;;;;;;10.05;4.47;;;12.70;99.90;;;;;;4940390;29;20236;-89
2023/10/04 06:28:18;;;;;;;11.48;4.80;;;12.70;99.90;;;;;;4940480;29;20173;-86
2023/10/04 06:30:48;;;;;;;8.82;4.43;;;12.70;99.90;;;;;;4940036;29;20569;-87
2023/10/04 06:33:15;;;;;;;9.90;4.63;;;12.80;99.90;;;;;;4945202;28;20271;-88
2023/10/04 06:35:43;;;;;;;11.52;4.45;;;12.70;99.90;;;;;;4959115;28;20184;-85
2023/10/04 06:38:17;;;;;;;12.68;5.10;;;12.70;99.90;;;;;;4976593;28;20204;-86
2023/10/04 06:40:42;;;;;;;15.32;4.90;;;12.70;99.90;;;;;;4959394;28;20259;-92
2023/10/04 06:43:09;;;;;;;8.45;5.10;;;12.70;99.90;;;;;;4976557;28;20204;-94
2023/10/04 06:45:36;;;;;;;9.63;5.30;;;12.70;99.90;;;;;;4976287;28;20269;-89
2023/10/04 06:48:06;;;;;;;9.50;5.15;;;12.60;99.90;;;;;;4959608;28;20185;-90
2023/10/04 06:50:38;;;;;;;13.57;5.80;;;12.60;99.90;;;;;;4959176;28;20172;-94
2023/10/04 06:53:05;;;;;;;9.52;5.38;;;12.70;99.90;;;;;;4959171;28;20674;-89
2023/10/04 06:55:32;;;;;;;12.18;5.60;;;12.60;99.90;;;;;;4959033;28;20249;-94
2023/10/04 06:58:01;;;;;;;16.20;5.30;;;12.70;99.90;;;;;;4959460;28;20180;-92
2023/10/04 07:00:36;;;;;;;14.55;6.20;;;12.70;99.90;;;;;;4959378;28;20230;-88
2023/10/04 07:03:02;;;;;;;9.95;4.85;;;12.70;99.90;;;;;;4959249;28;20234;-96
2023/10/04 07:05:37;;;;;;;11.70;6.18;;;12.70;99.90;;;;;;4959202;28;20175;-94
2023/10/04 07:08:08;;;;;;;9.48;5.68;;;12.80;99.90;;;;;;4959457;28;20263;-95
2023/10/04 07:10:35;;;;;;;12.88;5.63;;;12.90;99.90;;;;;;4959382;28;20169;-92
2023/10/04 07:13:06;;;;;;;13.30;5.60;;;13.00;99.90;;;;;;4959529;28;20188;-95
2023/10/04 07:15:35;;;;;;;8.30;5.43;;;13.00;99.90;;;;;;4959557;28;20323;-95
2023/10/04 07:18:07;;;;;;;10.13;5.50;;;13.10;99.90;;;;;;4976236;28;20212;-91
2023/10/04 07:20:34;;;;;;;10.30;5.75;;;13.10;99.90;;;;;;4958865;28;20600;-94
2023/10/04 07:23:03;;;;;;;13.57;5.47;;;13.20;99.90;;;;;;4958827;28;20187;-93
2023/10/04 07:25:34;;;;;;;13.52;5.80;;;13.20;99.90;;;;;;4958175;28;20180;-96
2023/10/04 07:28:11;;;;;;;13.05;5.65;;;13.30;99.90;;;;;;4958954;28;20176;-92
2023/10/04 07:30:38;;;;;;;15.02;6.00;;;13.40;99.90;;;;;;4959056;28;20678;-90
2023/10/04 07:33:04;;;;;;;13.00;5.90;;;13.40;99.90;;;;;;4959253;28;20203;-93
2023/10/04 07:35:32;;;;;;;13.07;5.13;;;13.50;99.90;;;;;;4958645;28;20180;-95
2023/10/04 07:37:58;;;;;;;16.83;5.75;;;13.60;99.90;;;;;;4959340;28;20188;-91
2023/10/04 07:40:27;;;;;;;12.27;5.15;;;13.50;99.90;;;;;;4959305;28;20190;-92
2023/10/04 07:42:54;;;;;;;17.33;5.53;;;13.60;99.90;;;;;;4959575;28;20212;-91
2023/10/04 07:45:28;;;;;;;11.60;5.20;;;13.70;99.90;;;;;;4959302;28;20191;-92
2023/10/04 07:47:54;;;;;;;13.73;5.00;;;13.80;99.90;;;;;;4959442;28;20236;-92
2023/10/04 07:50:31;;;;;;;14.35;5.03;;;13.90;99.90;;;;;;4958712;28;20180;-91
2023/10/04 07:52:59;;;;;;;12.73;4.93;;;13.90;99.90;;;;;;4959552;28;20643;-93
2023/10/04 07:55:25;;;;;;;10.63;5.03;;;13.90;99.90;;;;;;4959117;28;20187;-92
2023/10/04 07:58:01;;;;;;;12.13;4.70;;;13.90;99.90;;;;;;4959497;28;20188;-94
2023/10/04 08:00:29;;;;;;;11.63;4.85;;;14.00;99.90;;;;;;4959055;28;20259;-94
2023/10/04 08:02:57;;;;;;;12.05;4.72;;;14.00;99.90;;;;;;4976156;28;20557;-91
2023/10/04 08:05:31;;;;;;;9.55;4.85;;;14.00;99.90;;;;;;4958934;28;20173;-96
2023/10/04 08:08:04;;;;;;;13.63;5.30;;;14.10;99.90;;;;;;4958732;28;20187;-92
2023/10/04 08:10:36;;;;;;;12.07;4.57;;;14.10;99.90;;;;;;4958604;28;20184;-90
2023/10/04 08:13:03;;;;;;;12.13;4.78;;;14.10;99.90;;;;;;4961647;28;20323;-93
2023/10/04 08:15:30;;;;;;;13.77;4.78;;;14.10;99.90;;;;;;4962351;28;20173;-95
2023/10/04 08:17:58;;;;;;;12.10;5.00;;;14.10;99.90;;;;;;4962592;28;20275;-95
2023/10/04 08:20:29;;;;;;;11.15;4.65;;;14.20;99.90;;;;;;4962190;28;20187;-95
2023/10/04 08:22:59;;;;;;;15.23;5.43;;;14.20;99.90;;;;;;4963311;28;20184;-95
2023/10/04 08:25:29;;;;;;;11.65;5.00;;;14.20;99.90;;;;;;4962981;28;20358;-95
2023/10/04 08:27:55;;;;;;;10.07;4.50;;;14.30;99.90;;;;;;4962636;28;20212;-96
2023/10/04 08:30:21;;;;;;;14.80;5.20;;;14.30;99.90;;;;;;4962089;28;20177;-91
2023/10/04 08:32:49;;;;;;;17.48;5.47;;;14.40;99.90;;;;;;4962039;28;20218;-92
2023/10/04 08:35:28;;;;;;;11.07;5.30;;;14.40;99.90;;;;;;4963149;28;20537;-89
2023/10/04 08:37:58;;;;;;;11.27;5.05;;;14.40;99.90;;;;;;4980533;28;20241;-93
2023/10/04 08:40:29;;;;;;;14.07;5.00;;;14.40;99.90;;;;;;4962101;28;20666;-92
2023/10/04 08:42:57;;;;;;;13.25;4.88;;;14.40;99.90;;;;;;4962207;28;20180;-93
2023/10/04 08:45:27;;;;;;;10.82;4.75;;;14.40;99.90;;;;;;4962030;28;20572;-92
2023/10/04 08:47:57;;;;;;;14.95;6.00;;;14.50;99.90;;;;;;4962056;28;20280;-95
2023/10/04 08:50:46;;;;;;;13.55;4.93;;;14.50;99.90;;;;;;4961985;28;20180;-95
2023/10/04 08:53:34;;;;;;;12.05;4.88;;;14.50;99.90;;;;;;4962109;28;20234;-94
2023/10/04 08:56:08;;;;;;;10.98;5.05;;;14.60;99.90;;;;;;4962947;28;20184;-94
2023/10/04 08:58:35;;;;;;;13.48;5.13;;;14.60;99.90;;;;;;4962618;28;20263;-95
2023/10/04 09:01:04;;;;;;;14.38;4.28;;;14.70;99.90;;;;;;4962571;28;20177;-95
2023/10/04 09:03:31;;;;;;;12.77;4.72;;;14.70;99.90;;;;;;4961487;28;20679;-94
2023/10/04 09:05:57;;;;;;;12.50;4.55;;;14.80;99.90;;;;;;4962454;28;20276;-89
2023/10/04 09:08:25;;;;;;;13.93;4.43;;;14.90;99.90;;;;;;4962929;28;20526;-96
2023/10/04 09:10:55;;;;;;;12.07;4.90;;;14.90;99.90;;;;;;4964014;28;20183;-95
2023/10/04 09:13:22;;;;;;;11.48;4.88;;;14.90;99.90;;;;;;4980069;28;20179;-93
2023/10/04 09:15:48;;;;;;;12.93;5.32;;;15.00;99.90;;;;;;4962309;28;20180;-89
2023/10/04 09:18:27;;;;;;;10.40;4.35;;;15.10;99.90;;;;;;4962200;28;20308;-95
2023/10/04 09:21:24;;;;;;;8.90;4.68;;;15.10;99.90;;;;;;4978625;28;20184;-95
2023/10/04 09:24:09;;;;;;;11.38;4.15;;;15.20;99.90;;;;;;4960191;28;20169;-94
2023/10/04 09:26:36;;;;;;;10.95;4.15;;;15.30;99.90;;;;;;4962846;28;20180;-95
2023/10/04 09:29:04;;;;;;;11.57;4.93;;;15.30;99.90;;;;;;4962397;28;20187;-95
2023/10/04 09:31:44;;;;;;;9.98;3.90;;;15.40;99.90;;;;;;4962428;28;20201;-95
2023/10/04 09:34:13;;;;;;;8.57;3.78;;;15.60;99.90;;;;;;4964063;28;20238;-96
2023/10/04 09:36:40;;;;;;;11.35;4.45;;;15.70;99.90;;;;;;4963920;28;20271;-95
2023/10/04 09:39:13;;;;;;;7.70;3.88;;;15.80;99.90;;;;;;4963982;28;20177;-96
2023/10/04 09:41:47;;;;;;;15.55;4.35;;;15.80;99.90;;;;;;4983480;28;20678;-90
2023/10/04 09:44:30;;;;;;;10.95;3.90;;;15.90;99.90;;;;;;4967300;28;20227;-94
2023/10/04 09:47:00;;;;;;;8.88;4.38;;;16.00;99.90;;;;;;4964936;28;20185;-94
2023/10/04 09:49:31;;;;;;;9.20;3.95;;;16.10;99.90;;;;;;4963677;28;20180;-95
2023/10/04 09:52:00;;;;;;;11.60;3.88;;;16.10;99.90;;;;;;4962651;28;20584;-95
2023/10/04 09:54:27;;;;;;;10.98;3.60;;;16.00;99.90;;;;;;4962993;28;20181;-96
2023/10/04 09:56:54;;;;;;;12.20;3.80;;;16.00;99.90;;;;;;4967882;28;20195;-93
2023/10/04 09:59:22;;;;;;;11.57;3.13;;;16.00;99.90;;;;;;4967036;28;20204;-95
2023/10/04 10:01:59;;;;;;;10.27;3.20;;;15.90;99.90;;;;;;4966970;28;20236;-95
2023/10/04 10:04:29;;;;;;;10.57;3.22;;;15.90;99.90;;;;;;4962073;28;20247;-89
2023/10/04 10:07:25;;;;;;;8.20;3.20;;;15.80;99.90;;;;;;4960606;28;20239;-84
2023/10/04 10:10:12;;;;;;;9.80;3.70;;;15.60;99.90;;;;;;4953199;28;20198;-90
2023/10/04 10:12:39;;;;;;;11.45;3.65;;;15.60;99.90;;;;;;4960106;28;20208;-89
2023/10/04 10:15:07;;;;;;;10.80;3.33;;;15.60;99.90;;;;;;4960187;28;20204;-88
2023/10/04 10:17:40;;;;;;;9.60;3.45;;;15.70;99.90;;;;;;4977367;28;20211;-88
2023/10/04 10:20:09;;;;;;;9.65;3.85;;;15.80;99.90;;;;;;4960421;28;20180;-88
2023/10/04 10:22:58;;;;;;;7.43;3.15;;;15.70;99.90;;;;;;4944334;28;20511;-88
2023/10/04 10:25:25;;;;;;;8.95;3.10;;;15.60;99.90;;;;;;4968271;28;20188;-96
2023/10/04 10:28:12;;;;;;;11.00;4.32;;;15.60;99.90;;;;;;4983266;28;20176;-96
2023/10/04 10:30:43;;;;;;;17.55;3.80;;;15.60;99.90;;;;;;4965922;28;20327;-96
2023/10/04 10:33:12;;;;;;;15.70;3.80;;;15.60;99.90;;;;;;4964853;28;20184;-96
2023/10/04 10:35:59;;;;;;;7.28;3.05;;;15.60;99.90;;;;;;4968655;28;20200;-96
2023/10/04 10:38:40;;;;;;;8.05;2.97;;;15.50;99.90;;;;;;4968132;28;20177;-96
2023/10/04 10:41:28;;;;;;;8.27;3.17;;;15.50;99.90;;;;;;4960730;28;20569;-95
2023/10/04 10:47:25;;;;;;;9.00;3.10;;;15.50;99.90;;;;;;4960333;28;20212;-93
2023/10/04 10:49:56;;;;;;;10.18;2.80;;;15.70;99.90;;;;;;4960781;28;20188;-95
2023/10/04 10:52:30;;;;;;;8.48;2.90;;;15.90;99.90;;;;;;4960251;28;20208;-93
2023/10/04 10:54:58;;;;;;;9.85;3.30;;;16.10;99.90;;;;;;4960216;28;20169;-93
2023/10/04 10:57:27;;;;;;;10.38;3.00;;;16.40;99.90;;;;;;4960124;28;20188;-94
2023/10/04 10:59:57;;;;;;;9.43;2.85;;;16.50;99.90;;;;;;4979164;28;20172;-94
2023/10/04 11:02:25;;;;;;;11.27;2.58;;;16.40;99.90;;;;;;4961629;28;20172;-92
2023/10/04 11:04:52;;;;;;;7.32;2.70;;;16.30;99.90;;;;;;4959635;28;20288;-95
2023/10/04 11:07:21;;;;;;;8.63;2.55;;;16.20;99.90;;;;;;4959804;28;20263;-94
2023/10/04 11:09:56;;;;;;;7.43;2.60;;;16.10;99.90;;;;;;4959845;28;20183;-94
2023/10/04 11:12:23;;;;;;;8.15;2.67;;;16.00;99.90;;;;;;4960950;28;20224;-94
2023/10/04 11:14:49;;;;;;;9.95;3.35;;;16.00;99.90;;;;;;4960427;28;20267;-93
2023/10/04 11:17:16;;;;;;;11.10;3.22;;;16.00;99.90;;;;;;4977006;28;20235;-93
2023/10/04 11:19:43;;;;;;;11.10;3.70;;;16.00;99.90;;;;;;4976834;28;20184;-90
2023/10/04 11:22:11;;;;;;;7.00;2.67;;;16.10;99.90;;;;;;4960703;28;20201;-95
2023/10/04 11:24:39;;;;;;;6.78;2.65;;;16.30;99.90;;;;;;4959141;28;20224;-96
2023/10/04 11:27:06;;;;;;;11.60;3.05;;;16.60;99.90;;;;;;4959254;28;20180;-96
2023/10/04 11:29:33;;;;;;;8.25;3.05;;;16.90;99.90;;;;;;4977329;28;20169;-94
2023/10/04 11:31:59;;;;;;;9.35;3.25;;;17.10;99.90;;;;;;4959735;28;20216;-95
2023/10/04 11:34:34;;;;;;;8.38;2.80;;;17.20;99.90;;;;;;4958697;28;20632;-87
2023/10/04 11:37:01;;;;;;;9.45;3.28;;;17.10;99.90;;;;;;4958451;28;20179;-86
2023/10/04 11:39:34;;;;;;;10.60;3.50;;;17.00;99.90;;;;;;4958756;28;20172;-87
2023/10/04 11:42:05;;;;;;;11.20;3.47;;;16.80;99.90;;;;;;4958600;28;20192;-89
2023/10/04 11:44:33;;;;;;;8.38;3.60;;;16.60;99.90;;;;;;4959041;28;20176;-86
2023/10/04 11:47:08;;;;;;;10.75;3.17;;;16.70;99.90;;;;;;4960664;28;20180;-92
2023/10/04 11:49:35;;;;;;;8.10;3.53;;;16.90;99.90;;;;;;4962993;28;20219;-86
2023/10/04 11:52:05;;;;;;;11.15;4.13;;;17.10;99.90;;;;;;4962083;28;20219;-85
2023/10/04 11:54:41;;;;;;;10.10;3.38;;;17.10;99.90;;;;;;4962945;28;20687;-87
2023/10/04 11:57:08;;;;;;;8.80;3.13;;;16.90;99.90;;;;;;4962528;28;20180;-87
2023/10/04 11:59:34;;;;;;;7.03;3.17;;;16.80;99.90;;;;;;4962118;28;20215;-90
2023/10/04 12:02:02;;;;;;;8.82;3.05;;;16.70;99.90;;;;;;4962559;28;20231;-89
2023/10/04 12:04:36;;;;;;;9.68;3.60;;;16.70;99.90;;;;;;4979317;28;20291;-85
2023/10/04 12:07:04;;;;;;;6.90;3.50;;;16.50;99.90;;;;;;4962206;28;20172;-84
2023/10/04 12:09:36;;;;;;;8.38;3.45;;;16.40;99.90;;;;;;4962464;28;20271;-86
2023/10/04 12:12:08;;;;;;;9.75;3.22;;;16.30;99.90;;;;;;4962274;28;20665;-87
2023/10/04 12:14:34;;;;;;;7.15;3.05;;;16.30;99.90;;;;;;4979658;28;20498;-87
2023/10/04 12:17:05;;;;;;;8.45;3.42;;;16.30;99.90;;;;;;4962211;28;20184;-85
2023/10/04 12:19:37;;;;;;;8.90;3.45;;;16.20;99.90;;;;;;4962250;28;20165;-86
2023/10/04 12:22:08;;;;;;;9.77;3.03;;;16.20;99.90;;;;;;4961837;28;20177;-85
2023/10/04 12:24:39;;;;;;;9.60;3.30;;;16.30;99.90;;;;;;4979398;28;20168;-87
2023/10/04 12:27:08;;;;;;;11.25;3.78;;;16.60;99.90;;;;;;4962130;28;20219;-89
2023/10/04 12:29:36;;;;;;;11.55;3.67;;;16.90;99.90;;;;;;4979173;28;20173;-95
2023/10/04 12:32:07;;;;;;;11.75;3.28;;;16.90;99.90;;;;;;4961789;28;20219;-85
2023/10/04 12:34:36;;;;;;;7.05;3.03;;;17.00;99.90;;;;;;4961669;28;20188;-89
2023/10/04 12:37:02;;;;;;;8.10;3.45;;;17.00;99.90;;;;;;4961565;28;20642;-86
2023/10/04 12:39:28;;;;;;;8.88;3.45;;;17.30;99.90;;;;;;4961792;28;20188;-89
2023/10/04 12:41:59;;;;;;;10.13;3.90;;;17.50;99.90;;;;;;4961828;28;20184;-93
2023/10/04 12:44:24;;;;;;;8.95;3.90;;;17.60;99.90;;;;;;4961815;28;20177;-89
2023/10/04 12:46:50;;;;;;;6.55;3.15;;;17.50;99.90;;;;;;4961565;28;20235;-87
2023/10/04 12:49:18;;;;;;;9.23;3.22;;;17.60;99.90;;;;;;4961534;28;20180;-88
2023/10/04 12:51:46;;;;;;;10.30;3.78;;;17.50;99.90;;;;;;4961350;28;20259;-90
2023/10/04 12:54:11;;;;;;;10.10;3.58;;;17.30;99.90;;;;;;4961826;28;20180;-83
2023/10/04 12:56:39;;;;;;;10.20;3.60;;;17.10;99.90;;;;;;4961767;28;20188;-87
2023/10/04 12:59:05;;;;;;;9.85;3.03;;;17.00;99.90;;;;;;4978778;28;20177;-88
2023/10/04 13:01:37;;;;;;;7.72;3.58;;;16.90;99.90;;;;;;4961511;28;20569;-87
2023/10/04 13:04:03;;;;;;;10.07;3.55;;;16.80;99.90;;;;;;4978634;28;20310;-86